Time;durP1;ratioP1;P1;durP2;ratioP2;P2;SDS_P1;SDS_P2;PMS_P1;PMS_P2;Temp;Humidity;BMP_temperature;BMP_pressure;BME280_temperature;BME280_humidity;BME280_pressure;Samples;Min_cycle;Max_cycle;Signal;HPM_P1;HPM_P2
2024/01/04 00:04:21;;;;;;;12.80;5.95;;;;;;;1.59;100.00;99730.16;10217174;29;20075;-75
2024/01/04 00:09:22;;;;;;;10.25;5.40;;;;;;;1.46;100.00;99687.59;10216467;29;20044;-75
2024/01/04 00:14:23;;;;;;;9.15;4.40;;;;;;;1.83;100.00;99712.41;10217000;29;20044;-75
2024/01/04 00:19:24;;;;;;;8.05;4.00;;;;;;;2.03;100.00;99710.75;10216228;29;20508;-75
2024/01/04 00:24:24;;;;;;;7.30;3.97;;;;;;;1.90;100.00;99670.00;10253880;29;20047;-74
2024/01/04 00:29:25;;;;;;;6.90;3.35;;;;;;;2.14;99.99;99688.06;10255797;28;20051;-75
2024/01/04 00:34:26;;;;;;;6.70;3.05;;;;;;;2.27;100.00;99688.66;10255002;28;20411;-75
2024/01/04 00:39:27;;;;;;;7.78;3.28;;;;;;;2.16;99.86;99660.78;10254626;28;20050;-74
2024/01/04 00:44:28;;;;;;;6.70;3.30;;;;;;;2.06;99.79;99644.16;10294916;28;20054;-75
2024/01/04 00:49:31;;;;;;;7.82;3.47;;;;;;;2.20;100.00;99638.56;10294344;28;20065;-75
2024/01/04 00:54:32;;;;;;;5.82;2.85;;;;;;;2.18;100.00;99634.41;10293171;28;20047;-74
2024/01/04 00:59:33;;;;;;;7.47;3.50;;;;;;;2.24;100.00;99640.00;10294675;28;20129;-74
2024/01/04 01:04:35;;;;;;;8.20;2.95;;;;;;;2.01;100.00;99604.44;10294740;28;20050;-75
2024/01/04 01:09:36;;;;;;;6.10;2.72;;;;;;;2.44;100.00;99663.63;10294267;28;20049;-75
2024/01/04 01:14:37;;;;;;;7.45;3.20;;;;;;;2.12;100.00;99604.34;10294140;28;20057;-75
2024/01/04 01:19:39;;;;;;;9.18;3.25;;;;;;;2.02;99.90;99606.91;10293448;28;20061;-74
2024/01/04 01:24:40;;;;;;;9.32;3.20;;;;;;;2.07;100.00;99609.16;10293625;28;20043;-74
2024/01/04 01:29:41;;;;;;;5.57;2.83;;;;;;;2.37;99.87;99633.69;10293175;28;20038;-75
2024/01/04 01:34:42;;;;;;;7.85;3.20;;;;;;;2.40;100.00;99638.66;10293355;28;20035;-74
2024/01/04 01:39:43;;;;;;;12.18;3.60;;;;;;;2.54;100.00;99622.53;10292170;28;20065;-75
2024/01/04 01:44:44;;;;;;;10.65;3.20;;;;;;;2.64;100.00;99631.28;10292061;28;20042;-74
2024/01/04 01:49:45;;;;;;;5.97;3.08;;;;;;;2.62;100.00;99596.47;10292485;28;20518;-75
2024/01/04 01:54:47;;;;;;;8.68;3.05;;;;;;;2.84;99.75;99602.44;10292640;28;20132;-74
2024/01/04 01:59:48;;;;;;;6.32;2.78;;;;;;;2.91;99.55;99582.59;10291496;28;20038;-74
2024/01/04 02:04:49;;;;;;;5.18;2.28;;;;;;;2.59;98.89;99504.97;10291589;28;20038;-75
2024/01/04 02:09:50;;;;;;;8.05;2.78;;;;;;;2.66;98.19;99503.47;10292030;28;20047;-75
2024/01/04 02:14:54;;;;;;;7.22;2.35;;;;;;;3.13;98.19;99594.59;10291860;28;20046;-75
2024/01/04 02:19:56;;;;;;;5.93;2.08;;;;;;;3.22;97.60;99587.69;10291105;28;20427;-75
2024/01/04 02:24:57;;;;;;;5.43;2.15;;;;;;;3.22;97.59;99557.00;10291637;28;20082;-74
2024/01/04 02:29:58;;;;;;;9.30;2.20;;;;;;;3.29;97.20;99550.25;10281983;28;20035;-74
2024/01/04 02:34:59;;;;;;;5.90;2.03;;;;;;;3.27;96.91;99535.59;10291928;28;20519;-74
2024/01/04 02:39:59;;;;;;;6.00;2.22;;;;;;;3.20;96.34;99511.69;10290744;28;20083;-74
2024/01/04 02:45:00;;;;;;;4.32;2.00;;;;;;;3.35;96.40;99565.44;10290933;28;20043;-75
2024/01/04 02:50:01;;;;;;;13.77;2.30;;;;;;;3.40;96.83;99568.44;10290925;28;20050;-74
2024/01/04 02:55:02;;;;;;;4.18;2.03;;;;;;;3.33;96.11;99574.41;10291409;28;20046;-74
2024/01/04 03:00:03;;;;;;;7.13;2.30;;;;;;;3.13;96.14;99513.25;10289205;28;20077;-74
2024/01/04 03:05:05;;;;;;;4.15;1.83;;;;;;;3.41;96.34;99559.63;10290992;28;20050;-74
2024/01/04 03:10:06;;;;;;;8.15;2.00;;;;;;;3.28;96.29;99545.13;10290373;28;20051;-74
2024/01/04 03:15:07;;;;;;;6.63;2.13;;;;;;;2.97;95.85;99516.44;10296300;28;20047;-74
2024/01/04 03:20:08;;;;;;;7.40;2.72;;;;;;;3.01;96.42;99530.94;10297820;28;20506;-74
2024/01/04 03:25:10;;;;;;;5.35;2.28;;;;;;;3.29;96.15;99565.16;10298387;28;20049;-74
2024/01/04 03:30:11;;;;;;;10.48;2.28;;;;;;;3.29;95.62;99552.00;10298099;28;20066;-74
2024/01/04 03:35:12;;;;;;;6.93;2.17;;;;;;;3.18;95.32;99542.53;10297557;28;20513;-74
2024/01/04 03:40:13;;;;;;;4.60;1.90;;;;;;;3.13;94.57;99519.31;10297904;28;20105;-74
2024/01/04 03:45:14;;;;;;;4.65;1.80;;;;;;;3.38;94.35;99543.28;10297485;28;20130;-74
2024/01/04 03:50:15;;;;;;;4.28;1.90;;;;;;;3.39;93.89;99535.28;10297122;28;20182;-74
2024/01/04 03:55:16;;;;;;;4.25;1.80;;;;;;;3.48;93.72;99538.03;10296535;28;20050;-74
2024/01/04 04:00:17;;;;;;;5.15;1.88;;;;;;;3.60;93.78;99537.72;10297172;28;20043;-75
2024/01/04 04:05:18;;;;;;;4.72;1.85;;;;;;;3.72;93.83;99529.69;10296594;28;20043;-75
2024/01/04 04:10:19;;;;;;;4.07;2.00;;;;;;;3.74;93.29;99528.56;10296135;28;20407;-75
2024/01/04 04:15:20;;;;;;;5.25;1.52;;;;;;;3.41;93.02;99464.25;10295672;28;20043;-75
2024/01/04 04:20:21;;;;;;;9.57;2.50;;;;;;;3.65;93.22;99503.16;10296747;28;20034;-75
2024/01/04 04:25:22;;;;;;;3.05;1.40;;;;;;;3.64;92.87;99470.78;10295174;28;20057;-74
2024/01/04 04:30:23;;;;;;;9.57;1.67;;;;;;;3.79;91.09;99457.19;10295791;28;20090;-74
2024/01/04 04:35:23;;;;;;;3.40;1.35;;;;;;;3.60;89.40;99421.34;10296168;28;20443;-73
2024/01/04 04:40:24;;;;;;;4.00;1.13;;;;;;;3.94;88.83;99460.16;10295202;28;20063;-73
2024/01/04 04:45:25;;;;;;;5.90;1.10;;;;;;;3.86;88.69;99461.72;10294842;28;20034;-74
2024/01/04 04:50:26;;;;;;;4.55;1.50;;;;;;;3.77;88.85;99472.25;10295114;28;20078;-73
2024/01/04 04:55:26;;;;;;;7.53;1.38;;;;;;;3.69;89.07;99454.63;10295580;28;20162;-74
2024/01/04 05:00:27;;;;;;;5.32;1.42;;;;;;;3.48;88.78;99422.50;10295112;28;20071;-74
2024/01/04 05:05:28;;;;;;;6.72;1.35;;;;;;;3.73;88.73;99457.78;10285531;28;20035;-74
2024/01/04 05:10:29;;;;;;;5.40;1.25;;;;;;;3.66;89.01;99447.84;10272747;28;20046;-74
2024/01/04 05:15:30;;;;;;;3.00;1.10;;;;;;;3.89;88.83;99469.31;10273016;28;20049;-74
2024/01/04 05:20:31;;;;;;;3.38;1.40;;;;;;;3.87;88.76;99465.16;10272448;28;20562;-74
2024/01/04 05:25:31;;;;;;;4.05;1.38;;;;;;;3.64;88.73;99405.13;10275385;28;20410;-73
2024/01/04 05:30:32;;;;;;;3.53;1.38;;;;;;;3.98;88.82;99451.84;10283697;28;20042;-72
2024/01/04 05:35:33;;;;;;;5.60;1.33;;;;;;;3.98;88.84;99446.59;10282726;28;20034;-76
2024/01/04 05:40:35;;;;;;;2.50;1.30;;;;;;;4.08;88.52;99446.50;10269048;28;20175;-72
2024/01/04 05:45:36;;;;;;;9.00;1.85;;;;;;;4.11;87.76;99436.53;10269843;28;20131;-73
2024/01/04 05:50:36;;;;;;;7.47;1.80;;;;;;;4.12;87.83;99425.03;10266926;28;20039;-73
2024/01/04 05:55:37;;;;;;;4.50;1.45;;;;;;;4.12;88.18;99435.53;10269234;28;20047;-76
2024/01/04 06:00:38;;;;;;;9.20;1.40;;;;;;;4.16;88.47;99422.09;10272529;28;20475;-74
2024/01/04 06:05:39;;;;;;;9.00;1.15;;;;;;;4.30;87.80;99429.47;10270014;28;20061;-75
2024/01/04 06:10:40;;;;;;;4.00;1.33;;;;;;;3.98;87.73;99367.75;10274026;28;20388;-73
2024/01/04 06:15:41;;;;;;;3.20;1.27;;;;;;;4.02;87.49;99368.28;10269022;28;20079;-76
2024/01/04 06:20:43;;;;;;;5.05;1.25;;;;;;;4.38;87.40;99413.78;10253969;28;20149;-73
2024/01/04 06:25:43;;;;;;;9.90;2.10;;;;;;;4.51;87.38;99410.75;10281188;28;20065;-72
2024/01/04 06:30:44;;;;;;;4.15;1.20;;;;;;;4.65;86.47;99401.50;10272566;28;20043;-71
2024/01/04 06:35:45;;;;;;;4.95;1.00;;;;;;;4.76;85.33;99403.91;10276893;28;20035;-73
2024/01/04 06:40:46;;;;;;;5.05;1.40;;;;;;;4.79;85.02;99380.72;10274264;28;20150;-75
2024/01/04 06:45:47;;;;;;;4.00;1.10;;;;;;;4.89;83.99;99380.63;10274479;28;20039;-74
2024/01/04 06:50:49;;;;;;;3.60;1.30;;;;;;;5.13;83.36;99394.91;10286795;28;20054;-78
2024/01/04 06:55:49;;;;;;;3.47;1.20;;;;;;;5.35;83.50;99391.72;10264982;28;20042;-75
2024/01/04 07:00:52;;;;;;;2.05;1.00;;;;;;;5.61;83.10;99372.41;10279698;28;20057;-75
2024/01/04 07:05:52;;;;;;;2.80;0.80;;;;;;;5.92;81.79;99373.50;10279924;28;20070;-76
2024/01/04 07:10:53;;;;;;;7.38;1.20;;;;;;;6.18;81.62;99385.72;10280442;28;20063;-76
2024/01/04 07:15:54;;;;;;;1.65;0.73;;;;;;;6.28;81.74;99367.97;10275666;28;20039;-77
2024/01/04 07:20:55;;;;;;;7.05;1.30;;;;;;;6.44;81.72;99363.66;10277108;28;20042;-76
2024/01/04 07:25:56;;;;;;;2.10;1.17;;;;;;;6.74;81.25;99394.66;10279962;28;20054;-77
2024/01/04 07:30:57;;;;;;;7.47;2.90;;;;;;;6.88;79.77;99369.41;10279172;28;20035;-75
2024/01/04 07:35:59;;;;;;;2.83;1.20;;;;;;;6.98;79.15;99385.06;10276611;28;20034;-76
2024/01/04 07:41:00;;;;;;;4.28;1.30;;;;;;;6.90;78.90;99326.97;10277129;28;20126;-76
2024/01/04 07:46:01;;;;;;;4.45;1.45;;;;;;;7.27;77.90;99381.84;10275094;28;20038;-76
2024/01/04 07:51:02;;;;;;;2.90;1.08;;;;;;;7.21;77.53;99371.94;10277330;28;20114;-76
2024/01/04 07:56:03;;;;;;;2.13;0.93;;;;;;;7.23;76.74;99377.88;10276400;28;20039;-78
2024/01/04 08:01:04;;;;;;;4.45;1.05;;;;;;;7.42;76.61;99395.13;10275850;28;20849;-78
2024/01/04 08:06:05;;;;;;;1.70;0.73;;;;;;;7.67;76.60;99406.47;10274521;28;20043;-75
2024/01/04 08:11:07;;;;;;;2.22;0.70;;;;;;;7.89;75.33;99394.28;10276814;28;20046;-76
2024/01/04 08:16:08;;;;;;;2.00;0.98;;;;;;;8.06;74.93;99387.06;10273924;28;20558;-78
2024/01/04 08:21:10;;;;;;;5.93;2.85;;;;;;;8.18;73.68;99354.75;10275785;28;20129;-77
2024/01/04 08:26:11;;;;;;;5.90;1.63;;;;;;;8.35;73.42;99352.00;10274080;28;20512;-77
2024/01/04 08:31:12;;;;;;;10.00;4.07;;;;;;;8.35;72.98;99368.69;10275299;28;20042;-77
2024/01/04 08:36:13;;;;;;;5.95;2.10;;;;;;;8.25;72.58;99344.28;10273957;28;20411;-76
2024/01/04 08:41:14;;;;;;;5.65;1.33;;;;;;;8.02;72.88;99299.34;10272779;28;20418;-77
2024/01/04 08:46:16;;;;;;;5.82;1.63;;;;;;;8.40;72.76;99355.75;10273822;28;20051;-77
2024/01/04 08:51:16;;;;;;;4.38;1.25;;;;;;;8.55;71.77;99376.16;10273734;28;20046;-79
2024/01/04 08:56:19;;;;;;;3.67;1.20;;;;;;;8.87;70.28;99367.09;10272360;28;20039;-74
2024/01/04 09:01:20;;;;;;;4.28;2.22;;;;;;;9.08;69.35;99361.09;10281639;28;20047;-74
2024/01/04 09:06:21;;;;;;;4.00;1.40;;;;;;;9.04;69.27;99360.63;10264660;28;20534;-76
2024/01/04 09:11:21;;;;;;;2.40;1.23;;;;;;;8.72;69.23;99318.59;10263837;28;20096;-74
2024/01/04 09:16:22;;;;;;;4.60;0.93;;;;;;;8.88;68.51;99366.06;10265088;28;20059;-76
2024/01/04 09:21:24;;;;;;;2.67;1.33;;;;;;;8.65;70.14;99371.44;10256769;28;20054;-76
2024/01/04 09:26:25;;;;;;;3.50;1.17;;;;;;;8.12;71.91;99336.94;10280120;28;20043;-72
2024/01/04 09:31:26;;;;;;;5.13;1.80;;;;;;;7.59;73.82;99346.50;10259138;28;20046;-76
2024/01/04 09:36:26;;;;;;;5.93;1.88;;;;;;;7.51;74.65;99399.44;10255911;28;20062;-76
2024/01/04 09:41:31;;;;;;;4.03;1.55;;;;;;;7.30;75.64;99411.38;10276828;28;20050;-76
2024/01/04 09:46:39;;;;;;;2.50;1.10;;;;;;;6.84;75.67;99366.25;10276201;28;20067;-76
2024/01/04 09:51:41;;;;;;;8.05;2.03;;;;;;;7.25;75.70;99434.00;10262481;28;20051;-79
2024/01/04 09:56:46;;;;;;;3.78;1.60;;;;;;;7.07;75.70;99368.19;10287388;28;20049;-77
2024/01/04 10:01:48;;;;;;;3.67;1.63;;;;;;;7.41;75.52;99396.16;10285638;28;20089;-75
2024/01/04 10:06:50;;;;;;;3.10;1.50;;;;;;;7.08;75.85;99357.44;10289287;28;20097;-80
2024/01/04 10:11:57;;;;;;;4.68;1.50;;;;;;;7.62;75.76;99411.44;10282674;28;20050;-78
2024/01/04 10:16:59;;;;;;;3.40;1.60;;;;;;;7.71;75.52;99394.53;10270816;28;20039;-79
2024/01/04 10:22:01;;;;;;;4.35;1.60;;;;;;;8.01;75.08;99387.59;10254313;28;20179;-76
2024/01/04 10:27:02;;;;;;;6.30;2.03;;;;;;;8.26;73.68;99337.19;10267716;28;20530;-74
2024/01/04 10:32:10;;;;;;;4.68;2.00;;;;;;;8.99;72.86;99384.19;10275844;28;20067;-67
2024/01/04 10:37:17;;;;;;;3.40;1.50;;;;;;;9.08;71.34;99351.31;10284128;28;20042;-73
2024/01/04 10:42:18;;;;;;;3.80;1.63;;;;;;;9.07;71.19;99368.22;10280088;28;20059;-72
2024/01/04 10:47:21;;;;;;;4.50;1.80;;;;;;;8.98;71.38;99395.78;10270904;28;20050;-72
2024/01/04 10:52:27;;;;;;;3.95;1.30;;;;;;;8.99;69.99;99381.53;10281035;28;20042;-75
2024/01/04 10:57:31;;;;;;;5.45;1.67;;;;;;;9.15;70.14;99385.84;10284308;28;20043;-74
2024/01/04 11:02:33;;;;;;;2.90;1.47;;;;;;;9.00;69.84;99332.03;10272787;28;20043;-74
2024/01/04 11:07:38;;;;;;;2.95;1.45;;;;;;;9.30;69.41;99401.72;10280359;28;20075;-74
2024/01/04 11:12:40;;;;;;;6.30;2.13;;;;;;;9.17;69.77;99399.72;10275907;28;20046;-73
2024/01/04 11:18:19;;;;;;;3.78;1.23;;;;;;;9.17;69.29;99417.47;10272936;28;20503;-73
2024/01/04 11:23:32;;;;;;;2.60;1.30;;;;;;;8.82;69.38;99377.41;10270210;28;20547;-75
2024/01/04 11:28:34;;;;;;;13.48;1.67;;;;;;;9.07;70.40;99453.00;10268875;28;20047;-74
2024/01/04 11:33:41;;;;;;;4.70;1.77;;;;;;;9.03;70.21;99472.88;10271676;28;20098;-74
2024/01/04 11:38:45;;;;;;;5.72;1.38;;;;;;;8.89;70.87;99511.59;10273823;28;20050;-75
2024/01/04 11:43:48;;;;;;;3.08;1.40;;;;;;;8.80;71.59;99511.84;10270027;28;20070;-72
2024/01/04 11:49:06;;;;;;;5.60;1.30;;;;;;;8.79;70.48;99531.34;10275600;28;20173;-74
2024/01/04 11:54:12;;;;;;;2.28;1.00;;;;;;;8.31;70.92;99467.09;10280472;28;20054;-73
2024/01/04 11:59:15;;;;;;;2.30;1.10;;;;;;;8.42;71.44;99531.09;10260191;28;20051;-73
2024/01/04 12:04:17;;;;;;;3.80;1.50;;;;;;;8.43;71.77;99550.44;10264813;28;20622;-73
2024/01/04 12:09:18;;;;;;;38.88;23.10;;;;;;;8.03;72.74;99501.97;10275183;28;20042;-76
2024/01/04 12:14:18;;;;;;;24.98;15.40;;;;;;;8.34;74.12;99554.91;10281545;28;20051;-77
2024/01/04 12:19:19;;;;;;;5.45;2.90;;;;;;;8.00;75.43;99511.06;10272195;28;20046;-74
2024/01/04 12:24:21;;;;;;;3.33;1.92;;;;;;;7.78;76.71;99507.38;10277041;28;20419;-76
2024/01/04 12:29:21;;;;;;;3.38;2.03;;;;;;;7.96;77.44;99540.69;10277444;28;20458;-76
2024/01/04 12:34:23;;;;;;;4.07;1.90;;;;;;;7.94;78.43;99553.25;10278984;28;20421;-76
2024/01/04 12:39:31;;;;;;;7.85;3.10;;;;;;;7.73;79.64;99548.53;10267044;28;20144;-75
2024/01/04 12:44:33;;;;;;;11.75;5.82;;;;;;;7.65;79.97;99557.28;10287226;28;20058;-76
2024/01/04 12:49:34;;;;;;;8.77;4.68;;;;;;;7.21;80.67;99496.94;10284009;28;20039;-75
2024/01/04 12:54:35;;;;;;;5.10;2.63;;;;;;;7.39;81.02;99539.00;10259897;28;20031;-75
2024/01/04 12:59:37;;;;;;;3.75;1.30;;;;;;;6.97;80.88;99466.09;10267116;28;20042;-77
2024/01/04 13:04:37;;;;;;;3.55;1.27;;;;;;;7.17;81.33;99498.22;10275240;28;20491;-74
2024/01/04 13:09:38;;;;;;;13.65;2.10;;;;;;;7.08;81.82;99486.84;10275857;28;20039;-74
2024/01/04 13:14:39;;;;;;;10.40;2.97;;;;;;;7.51;82.23;99553.53;10284457;28;20154;-75
2024/01/04 13:19:41;;;;;;;13.05;2.25;;;;;;;7.28;83.24;99547.28;10267362;28;20051;-74
2024/01/04 13:24:41;;;;;;;31.48;3.03;;;;;;;7.08;83.96;99557.34;10248186;28;20517;-75
2024/01/04 13:29:42;;;;;;;21.58;2.65;;;;;;;6.82;84.17;99542.47;10263454;28;20072;-80
2024/01/04 13:34:43;;;;;;;13.48;3.15;;;;;;;6.72;84.88;99554.16;10275587;28;20132;-78
2024/01/04 13:39:45;;;;;;;16.70;7.75;;;;;;;6.55;85.55;99577.03;10274368;28;20059;-73
2024/01/04 13:44:46;;;;;;;20.85;7.63;;;;;;;6.26;86.00;99574.84;10280439;28;20164;-73
2024/01/04 13:49:46;;;;;;;44.13;20.15;;;;;;;5.97;86.63;99536.47;10292500;28;20049;-75
2024/01/04 13:54:47;;;;;;;27.10;12.75;;;;;;;5.84;87.73;99542.16;10288514;28;20038;-75
2024/01/04 13:59:48;;;;;;;44.65;15.50;;;;;;;5.81;87.82;99566.19;10289514;28;20050;-78
2024/01/04 14:04:49;;;;;;;24.15;9.02;;;;;;;5.62;88.59;99575.09;10274760;28;20518;-76
2024/01/04 14:09:50;;;;;;;23.88;6.95;;;;;;;5.36;89.66;99569.03;10291463;28;20499;-75
2024/01/04 14:14:50;;;;;;;44.58;8.35;;;;;;;5.29;89.96;99591.66;10287576;28;20105;-76
2024/01/04 14:19:51;;;;;;;11.07;4.25;;;;;;;5.02;90.11;99577.63;10274198;28;20043;-73
2024/01/04 14:24:52;;;;;;;7.38;3.42;;;;;;;4.69;90.22;99548.34;10286183;28;20047;-77
2024/01/04 14:29:53;;;;;;;15.95;3.63;;;;;;;4.55;90.49;99562.03;10285522;28;20043;-75
2024/01/04 14:34:54;;;;;;;9.20;3.40;;;;;;;4.63;90.35;99611.28;10255483;28;20046;-76
2024/01/04 14:39:55;;;;;;;6.15;2.90;;;;;;;4.12;91.21;99556.44;10256356;28;20152;-77
2024/01/04 14:44:56;;;;;;;8.88;3.10;;;;;;;4.19;91.28;99583.00;10284018;28;20051;-77
2024/01/04 14:49:57;;;;;;;30.95;3.47;;;;;;;4.10;91.58;99613.63;10251179;29;20039;-77
2024/01/04 14:54:58;;;;;;;12.02;5.30;;;;;;;3.58;92.00;99550.16;10250895;29;20569;-78
2024/01/04 14:59:59;;;;;;;24.10;11.15;;;;;;;3.78;92.49;99606.09;10250524;28;20039;-77
2024/01/04 15:05:00;;;;;;;36.88;8.25;;;;;;;3.40;93.15;99557.13;10250510;28;20464;-78
2024/01/04 15:10:00;;;;;;;11.23;3.40;;;;;;;3.40;93.23;99565.00;10256079;28;20074;-74
2024/01/04 15:15:02;;;;;;;11.80;3.63;;;;;;;3.72;93.25;99629.50;10282876;28;20042;-79
2024/01/04 15:20:04;;;;;;;8.50;2.45;;;;;;;3.80;93.58;99630.44;10298008;28;20454;-76
2024/01/04 15:25:06;;;;;;;14.07;5.85;;;;;;;3.89;93.27;99632.22;10297715;28;20047;-74
2024/01/04 15:30:07;;;;;;;15.82;6.90;;;;;;;3.88;93.32;99634.97;10297359;28;20039;-75
2024/01/04 15:35:09;;;;;;;16.45;7.43;;;;;;;3.95;93.37;99628.19;10296992;28;20050;-73
2024/01/04 15:40:10;;;;;;;16.90;6.70;;;;;;;3.99;93.70;99647.94;10297370;28;20054;-72
2024/01/04 15:45:12;;;;;;;14.85;6.22;;;;;;;3.80;93.09;99608.56;10289889;28;20141;-73
2024/01/04 15:50:13;;;;;;;15.85;6.65;;;;;;;4.15;94.02;99655.22;10277508;28;20047;-71
2024/01/04 15:55:14;;;;;;;17.33;5.70;;;;;;;4.19;94.13;99646.09;10257481;29;20043;-71
2024/01/04 16:00:15;;;;;;;8.02;3.33;;;;;;;4.42;93.91;99653.59;10257395;29;20066;-70
2024/01/04 16:05:17;;;;;;;6.22;1.98;;;;;;;4.60;94.46;99645.75;10267560;28;20042;-71
2024/01/04 16:10:19;;;;;;;3.35;1.40;;;;;;;4.90;94.84;99652.50;10281307;28;20455;-70
2024/01/04 16:15:21;;;;;;;6.88;1.23;;;;;;;5.00;95.40;99646.22;10289112;28;20053;-71
2024/01/04 16:20:21;;;;;;;4.25;1.73;;;;;;;4.83;95.52;99591.75;10282490;28;20087;-71
2024/01/04 16:25:22;;;;;;;6.20;1.67;;;;;;;5.25;95.79;99656.97;10291599;28;20460;-70
2024/01/04 16:30:23;;;;;;;3.50;1.52;;;;;;;5.30;96.36;99669.72;10294219;28;20054;-70
2024/01/04 16:35:24;;;;;;;4.38;1.55;;;;;;;5.33;95.94;99682.56;10278820;28;20137;-70
2024/01/04 16:40:25;;;;;;;4.78;2.00;;;;;;;5.33;96.94;99677.31;10268246;28;20495;-71
2024/01/04 16:45:26;;;;;;;7.05;1.90;;;;;;;5.35;96.47;99681.41;10283839;28;20035;-71
2024/01/04 16:50:27;;;;;;;5.05;2.25;;;;;;;5.37;97.09;99692.63;10274299;28;20042;-70
2024/01/04 16:55:28;;;;;;;4.22;2.42;;;;;;;5.32;97.54;99700.16;10293475;28;20414;-74
2024/01/04 17:00:29;;;;;;;4.75;2.35;;;;;;;5.38;97.55;99710.09;10275401;28;20047;-70
2024/01/04 17:05:29;;;;;;;4.50;2.38;;;;;;;5.12;97.62;99669.69;10281157;28;20049;-70
2024/01/04 17:10:32;;;;;;;5.35;1.98;;;;;;;5.33;98.04;99728.16;10284168;28;20047;-71
2024/01/04 17:15:33;;;;;;;7.55;3.10;;;;;;;5.26;97.96;99717.41;10263965;28;20075;-69
2024/01/04 17:20:34;;;;;;;5.63;3.00;;;;;;;5.39;99.30;99732.00;10263896;28;20058;-69
2024/01/04 17:25:35;;;;;;;6.47;2.97;;;;;;;5.45;98.41;99729.59;10264439;28;20058;-69
2024/01/04 17:30:36;;;;;;;5.32;2.92;;;;;;;5.10;98.99;99661.94;10270354;28;20049;-69
2024/01/04 17:35:36;;;;;;;6.38;3.40;;;;;;;5.41;98.76;99720.31;10274986;28;20046;-71
2024/01/04 17:40:37;;;;;;;10.70;3.58;;;;;;;5.46;99.11;99730.44;10281773;28;20058;-70
2024/01/04 17:45:39;;;;;;;8.40;3.60;;;;;;;5.28;98.91;99726.97;10277831;28;20134;-71
2024/01/04 17:50:40;;;;;;;6.82;3.50;;;;;;;5.30;98.77;99730.28;10271265;28;20046;-72
2024/01/04 17:55:41;;;;;;;7.03;3.65;;;;;;;5.29;98.60;99720.69;10271713;28;20042;-71
2024/01/04 18:00:42;;;;;;;6.10;3.90;;;;;;;5.31;98.67;99732.75;10270776;28;20051;-71
2024/01/04 18:05:44;;;;;;;9.23;4.40;;;;;;;5.01;98.82;99697.88;10269859;28;20034;-71
2024/01/04 18:10:45;;;;;;;7.93;3.78;;;;;;;5.10;98.67;99737.47;10277292;28;20081;-71
2024/01/04 18:15:46;;;;;;;7.60;3.38;;;;;;;4.75;98.14;99691.66;10275854;28;20085;-71
2024/01/04 18:20:46;;;;;;;5.20;3.17;;;;;;;4.96;98.96;99747.50;10279121;28;20141;-71
2024/01/04 18:25:47;;;;;;;5.40;3.22;;;;;;;4.57;98.15;99681.06;10270410;28;20154;-71
2024/01/04 18:30:48;;;;;;;7.65;3.78;;;;;;;4.87;98.75;99747.53;10281099;28;20034;-71
2024/01/04 18:35:49;;;;;;;7.70;4.10;;;;;;;4.85;98.73;99755.59;10269838;28;20415;-71
2024/01/04 18:40:51;;;;;;;8.20;4.97;;;;;;;4.43;98.24;99694.69;10268038;28;20111;-70
2024/01/04 18:45:52;;;;;;;9.25;5.55;;;;;;;4.71;98.49;99763.97;10276301;28;20050;-70
2024/01/04 18:50:53;;;;;;;9.63;6.47;;;;;;;4.59;98.34;99747.53;10270266;28;20035;-71
2024/01/04 18:55:54;;;;;;;9.35;6.35;;;;;;;4.31;97.33;99708.03;10282787;28;20053;-70
2024/01/04 19:00:54;;;;;;;11.05;6.72;;;;;;;4.62;97.18;99767.47;10290348;28;20042;-71
2024/01/04 19:05:55;;;;;;;10.50;6.07;;;;;;;4.37;97.71;99738.19;10290466;28;20430;-70
2024/01/04 19:10:56;;;;;;;16.83;7.10;;;;;;;4.23;96.81;99757.06;10290350;28;20043;-71
2024/01/04 19:15:58;;;;;;;12.73;6.60;;;;;;;4.06;97.02;99769.94;10291531;28;20043;-70
2024/01/04 19:20:59;;;;;;;17.55;7.97;;;;;;;3.92;97.76;99770.38;10290647;28;20047;-71
2024/01/04 19:26:00;;;;;;;13.48;8.35;;;;;;;3.37;96.94;99730.69;10290157;28;20038;-71
2024/01/04 19:31:02;;;;;;;12.38;8.50;;;;;;;3.48;97.83;99771.75;10290892;28;20043;-70
2024/01/04 19:36:04;;;;;;;18.40;9.82;;;;;;;3.36;98.49;99779.72;10289714;28;20050;-71
2024/01/04 19:41:06;;;;;;;16.42;9.98;;;;;;;3.28;98.74;99765.63;10288703;28;20095;-71
2024/01/04 19:46:07;;;;;;;13.43;7.18;;;;;;;3.23;98.75;99779.16;10289234;28;20038;-71
2024/01/04 19:51:08;;;;;;;14.20;7.70;;;;;;;3.20;99.11;99782.03;10277996;28;20421;-70
2024/01/04 19:56:09;;;;;;;22.10;9.15;;;;;;;3.09;98.76;99775.13;10293673;28;20043;-71
2024/01/04 20:01:10;;;;;;;20.08;9.70;;;;;;;2.96;99.47;99785.00;10297368;28;20043;-71
2024/01/04 20:06:11;;;;;;;13.82;8.20;;;;;;;2.34;99.41;99741.41;10296504;28;20094;-70
2024/01/04 20:11:12;;;;;;;10.38;6.13;;;;;;;2.02;100.00;99727.44;10295337;28;20041;-70
2024/01/04 20:16:14;;;;;;;17.70;7.25;;;;;;;2.16;100.00;99770.00;10296208;28;20047;-70
2024/01/04 20:21:15;;;;;;;14.95;7.65;;;;;;;1.68;100.00;99676.22;10296519;28;20137;-70
2024/01/04 20:26:16;;;;;;;23.17;10.68;;;;;;;2.39;100.00;99765.41;10294404;28;20141;-70
2024/01/04 20:31:17;;;;;;;24.77;10.82;;;;;;;2.39;100.00;99762.81;10296465;28;20090;-70
2024/01/04 20:36:17;;;;;;;25.17;11.02;;;;;;;2.10;100.00;99757.41;10296057;28;20070;-70
2024/01/04 20:41:19;;;;;;;31.17;12.43;;;;;;;1.97;100.00;99755.78;10294128;28;20118;-70
2024/01/04 20:46:19;;;;;;;19.90;8.95;;;;;;;1.83;100.00;99764.81;10295108;28;20074;-69
2024/01/04 20:51:20;;;;;;;16.33;7.93;;;;;;;1.73;100.00;99747.34;10277261;28;20129;-69
2024/01/04 20:56:21;;;;;;;9.38;5.55;;;;;;;1.60;100.00;99726.56;10287498;28;20053;-70
2024/01/04 21:01:22;;;;;;;12.30;4.97;;;;;;;1.60;100.00;99727.41;10294069;28;20137;-71
2024/01/04 21:06:23;;;;;;;5.40;3.45;;;;;;;1.63;100.00;99744.66;10293439;28;20062;-69
2024/01/04 21:11:23;;;;;;;9.55;3.60;;;;;;;1.57;100.00;99737.31;10295188;28;20047;-70
2024/01/04 21:16:24;;;;;;;16.40;3.88;;;;;;;1.17;100.00;99690.81;10294757;28;20043;-69
2024/01/04 21:21:25;;;;;;;10.30;3.78;;;;;;;1.45;100.00;99735.69;10293723;28;20047;-70
2024/01/04 21:26:26;;;;;;;12.10;4.18;;;;;;;1.44;100.00;99726.19;10294556;28;20475;-69
2024/01/04 21:31:27;;;;;;;9.70;3.78;;;;;;;1.41;100.00;99739.47;10294810;28;20541;-69
2024/01/04 21:36:27;;;;;;;6.15;3.45;;;;;;;1.22;100.00;99732.28;10293163;28;20043;-69
2024/01/04 21:41:28;;;;;;;22.55;5.32;;;;;;;1.03;100.00;99701.56;10293061;28;20063;-70
2024/01/04 21:46:29;;;;;;;10.50;4.82;;;;;;;0.93;100.00;99682.31;10293287;28;20094;-69
2024/01/04 21:51:31;;;;;;;15.93;4.90;;;;;;;1.17;100.00;99745.75;10293129;28;20039;-69
2024/01/04 21:56:32;;;;;;;12.75;6.03;;;;;;;1.23;100.00;99740.03;10293111;28;20046;-69
2024/01/04 22:01:35;;;;;;;11.60;5.90;;;;;;;1.14;100.00;99710.22;10290721;28;20042;-69
2024/01/04 22:06:36;;;;;;;10.77;6.68;;;;;;;0.89;100.00;99690.41;10293100;28;20387;-70
2024/01/04 22:11:40;;;;;;;27.08;13.05;;;;;;;1.11;100.00;99730.56;10291726;28;20031;-69
2024/01/04 22:16:41;;;;;;;24.05;9.80;;;;;;;1.09;100.00;99720.19;10292005;28;20542;-69
2024/01/04 22:21:42;;;;;;;15.07;7.00;;;;;;;1.08;100.00;99736.84;10292434;28;20053;-69
2024/01/04 22:26:43;;;;;;;13.25;7.45;;;;;;;0.98;100.00;99737.69;10292104;28;20038;-70
2024/01/04 22:31:43;;;;;;;14.85;7.05;;;;;;;0.75;100.00;99727.28;10292129;28;20046;-70
2024/01/04 22:36:45;;;;;;;14.13;7.57;;;;;;;0.63;100.00;99736.91;10292241;28;20070;-70
2024/01/04 22:41:45;;;;;;;17.27;8.30;;;;;;;0.74;100.00;99748.31;10291538;28;20058;-69
2024/01/04 22:46:46;;;;;;;25.65;10.23;;;;;;;0.71;100.00;99745.94;10291717;28;20039;-69
2024/01/04 22:51:47;;;;;;;29.25;13.13;;;;;;;0.59;100.00;99732.03;10291360;28;20093;-69
2024/01/04 22:56:47;;;;;;;31.00;13.57;;;;;;;0.55;100.00;99738.47;10290755;28;20400;-69
2024/01/04 23:01:48;;;;;;;24.10;11.07;;;;;;;0.56;100.00;99747.94;10289817;28;20507;-69
2024/01/04 23:06:49;;;;;;;18.85;9.88;;;;;;;0.50;100.00;99736.19;10289202;28;20054;-70
2024/01/04 23:11:50;;;;;;;21.50;10.13;;;;;;;0.47;100.00;99732.97;10291667;28;20035;-70
2024/01/04 23:16:51;;;;;;;38.60;17.67;;;;;;;0.50;100.00;99735.34;10290443;28;20485;-70
2024/01/04 23:21:51;;;;;;;39.60;17.90;;;;;;;0.13;100.00;99675.50;10290267;28;20077;-70
2024/01/04 23:26:52;;;;;;;23.92;12.48;;;;;;;0.53;100.00;99716.81;10290994;28;20469;-70
2024/01/04 23:31:53;;;;;;;21.70;11.55;;;;;;;0.69;100.00;99714.69;10296087;28;20487;-72